MAU289 FMMI-FIMP
Flight info
| Callsign | MAU289 |
|---|---|
| Flight time | 1h 22m |
| Altitude | 41000 |
| Route | PIPRI1E TE UA400 RASMA RASMA2E |
| Aircraft | A359/H-SDE2E3GHIJ3J4J5LM1ORWXY/LB1D1 |
Departure
| Time | 2026-04-26 19:51 |
|---|---|
| Airport | Ivato International Airport (FMMI) |
Arrival
| Time | 2026-04-26 21:13 |
|---|---|
| Airport | Sir Seewoosagur Ramgoolam International Airport (FIMP) |
| Time | Latitude | Longitude | Altitude | Speed | Heading |
|---|---|---|---|---|---|
| 2026-04-26 19:39 | -18.79993 | 47.48000 | 4172 ft | 0 kts | 188° |
| 2026-04-26 19:44 | -18.79984 | 47.48002 | 4172 ft | 4 kts | 186° |
| 2026-04-26 19:44 | -18.79957 | 47.48003 | 4172 ft | 4 kts | 179° |
| 2026-04-26 19:44 | -18.79930 | 47.48002 | 4172 ft | 4 kts | 177° |
| 2026-04-26 19:44 | -18.79904 | 47.48003 | 4172 ft | 4 kts | 206° |
| 2026-04-26 19:45 | -18.79896 | 47.48008 | 4172 ft | 0 kts | 279° |
| 2026-04-26 19:47 | -18.79894 | 47.47997 | 4172 ft | 5 kts | 278° |
| 2026-04-26 19:47 | -18.79892 | 47.47981 | 4172 ft | 8 kts | 279° |
| 2026-04-26 19:47 | -18.79868 | 47.47856 | 4172 ft | 14 kts | 290° |
| 2026-04-26 19:47 | -18.79834 | 47.47733 | 4172 ft | 21 kts | 280° |
| 2026-04-26 19:48 | -18.79768 | 47.47603 | 4172 ft | 20 kts | 351° |
| 2026-04-26 19:48 | -18.79650 | 47.47589 | 4170 ft | 11 kts | 305° |
| 2026-04-26 19:48 | -18.79631 | 47.47495 | 4169 ft | 17 kts | 277° |
| 2026-04-26 19:48 | -18.79607 | 47.47315 | 4168 ft | 32 kts | 277° |
| 2026-04-26 19:49 | -18.79570 | 47.47056 | 4167 ft | 36 kts | 280° |
| 2026-04-26 19:49 | -18.79526 | 47.46794 | 4168 ft | 36 kts | 279° |
| 2026-04-26 19:49 | -18.79485 | 47.46555 | 4167 ft | 21 kts | 289° |
| 2026-04-26 19:49 | -18.79447 | 47.46463 | 4168 ft | 5 kts | 229° |
| 2026-04-26 19:50 | -18.79466 | 47.46460 | 4167 ft | 1 kts | 159° |
| 2026-04-26 19:50 | -18.79485 | 47.46510 | 4167 ft | 13 kts | 101° |
| 2026-04-26 19:50 | -18.79519 | 47.46736 | 4168 ft | 63 kts | 99° |
| 2026-04-26 19:50 | -18.79624 | 47.47432 | 4169 ft | 127 kts | 99° |
| 2026-04-26 19:51 | -18.79787 | 47.48527 | 4320 ft | 164 kts | 98° |
| 2026-04-26 19:51 | -18.79963 | 47.49681 | 5131 ft | 155 kts | 100° |
| 2026-04-26 19:51 | -18.80151 | 47.50796 | 5628 ft | 162 kts | 101° |
| 2026-04-26 19:51 | -18.80340 | 47.52032 | 5876 ft | 178 kts | 99° |
| 2026-04-26 19:52 | -18.80530 | 47.53386 | 6096 ft | 196 kts | 101° |
| 2026-04-26 19:52 | -18.80747 | 47.54874 | 6325 ft | 214 kts | 101° |
| 2026-04-26 19:52 | -18.81055 | 47.56472 | 6572 ft | 230 kts | 105° |
| 2026-04-26 19:52 | -18.81444 | 47.58163 | 6841 ft | 246 kts | 106° |
| 2026-04-26 19:53 | -18.81863 | 47.59997 | 7082 ft | 265 kts | 105° |
| 2026-04-26 19:53 | -18.82296 | 47.61933 | 7497 ft | 276 kts | 105° |
| 2026-04-26 19:53 | -18.82734 | 47.63921 | 8097 ft | 280 kts | 105° |
| 2026-04-26 19:53 | -18.83178 | 47.65939 | 8656 ft | 284 kts | 105° |
| 2026-04-26 19:54 | -18.83471 | 47.67293 | 9020 ft | 286 kts | 104° |
| 2026-04-26 19:54 | -18.83919 | 47.69356 | 9592 ft | 289 kts | 104° |
| 2026-04-26 19:54 | -18.84373 | 47.71433 | 10184 ft | 292 kts | 104° |
| 2026-04-26 19:54 | -18.84988 | 47.74257 | 10644 ft | 307 kts | 104° |
| 2026-04-26 19:55 | -18.85477 | 47.76503 | 10892 ft | 320 kts | 104° |
| 2026-04-26 19:55 | -18.85985 | 47.78842 | 11152 ft | 332 kts | 104° |
| 2026-04-26 19:55 | -18.86330 | 47.80433 | 11399 ft | 338 kts | 104° |
| 2026-04-26 19:55 | -18.86857 | 47.82874 | 11872 ft | 342 kts | 104° |
| 2026-04-26 19:56 | -18.87387 | 47.85325 | 12373 ft | 344 kts | 104° |
| 2026-04-26 19:56 | -18.87923 | 47.87796 | 12859 ft | 347 kts | 104° |
| 2026-04-26 19:56 | -18.88465 | 47.90295 | 13338 ft | 350 kts | 103° |
| 2026-04-26 19:56 | -18.89008 | 47.92815 | 13813 ft | 353 kts | 103° |
| 2026-04-26 19:57 | -18.89540 | 47.95357 | 14275 ft | 355 kts | 103° |
| 2026-04-26 19:57 | -18.90076 | 47.97919 | 14700 ft | 359 kts | 103° |
| 2026-04-26 19:57 | -18.90617 | 48.00510 | 15127 ft | 362 kts | 103° |
| 2026-04-26 19:57 | -18.91161 | 48.03111 | 15579 ft | 364 kts | 103° |
| 2026-04-26 19:58 | -18.91709 | 48.05728 | 16000 ft | 366 kts | 103° |
| 2026-04-26 19:58 | -18.92261 | 48.08364 | 16410 ft | 369 kts | 103° |
| 2026-04-26 19:58 | -18.92810 | 48.10988 | 16806 ft | 372 kts | 103° |
| 2026-04-26 19:58 | -18.93369 | 48.13662 | 17195 ft | 374 kts | 103° |
| 2026-04-26 19:59 | -18.93934 | 48.16361 | 17567 ft | 377 kts | 102° |
| 2026-04-26 19:59 | -18.94499 | 48.19067 | 17955 ft | 379 kts | 102° |
| 2026-04-26 19:59 | -18.95068 | 48.21798 | 18336 ft | 381 kts | 102° |
| 2026-04-26 19:59 | -18.95635 | 48.24548 | 18684 ft | 384 kts | 102° |
| 2026-04-26 20:00 | -18.96161 | 48.27324 | 19032 ft | 387 kts | 101° |
| 2026-04-26 20:00 | -18.96650 | 48.30052 | 19369 ft | 389 kts | 101° |
| 2026-04-26 20:00 | -18.97161 | 48.32947 | 19713 ft | 392 kts | 101° |
| 2026-04-26 20:00 | -18.97663 | 48.35789 | 20050 ft | 395 kts | 101° |
| 2026-04-26 20:01 | -18.98174 | 48.38648 | 20370 ft | 397 kts | 101° |
| 2026-04-26 20:01 | -18.98684 | 48.41482 | 20695 ft | 400 kts | 101° |
| 2026-04-26 20:01 | -18.99210 | 48.44379 | 21020 ft | 402 kts | 101° |
| 2026-04-26 20:01 | -18.99738 | 48.47288 | 21358 ft | 404 kts | 101° |
| 2026-04-26 20:02 | -19.00270 | 48.50213 | 21657 ft | 407 kts | 101° |
| 2026-04-26 20:02 | -19.00805 | 48.53161 | 21959 ft | 409 kts | 101° |
| 2026-04-26 20:02 | -19.01344 | 48.56126 | 22252 ft | 412 kts | 101° |
| 2026-04-26 20:02 | -19.01709 | 48.58139 | 22457 ft | 413 kts | 101° |
| 2026-04-26 20:03 | -19.02428 | 48.62106 | 22838 ft | 416 kts | 101° |
| 2026-04-26 20:03 | -19.02973 | 48.65119 | 23136 ft | 418 kts | 101° |
| 2026-04-26 20:03 | -19.03520 | 48.68149 | 23405 ft | 421 kts | 101° |
| 2026-04-26 20:03 | -19.04071 | 48.71198 | 23692 ft | 423 kts | 101° |
| 2026-04-26 20:04 | -19.04624 | 48.74262 | 23991 ft | 425 kts | 101° |
| 2026-04-26 20:04 | -19.05181 | 48.77349 | 24273 ft | 427 kts | 101° |
| 2026-04-26 20:04 | -19.05730 | 48.80402 | 24534 ft | 430 kts | 101° |
| 2026-04-26 20:04 | -19.06290 | 48.83516 | 24786 ft | 432 kts | 101° |
| 2026-04-26 20:05 | -19.06852 | 48.86648 | 25019 ft | 435 kts | 101° |
| 2026-04-26 20:05 | -19.07417 | 48.89800 | 25261 ft | 437 kts | 101° |
| 2026-04-26 20:05 | -19.07984 | 48.92971 | 25529 ft | 440 kts | 101° |
| 2026-04-26 20:05 | -19.08554 | 48.96149 | 25790 ft | 442 kts | 101° |
| 2026-04-26 20:06 | -19.09129 | 48.99364 | 26021 ft | 445 kts | 101° |
| 2026-04-26 20:06 | -19.09706 | 49.02591 | 26281 ft | 447 kts | 101° |
| 2026-04-26 20:06 | -19.10284 | 49.05834 | 26531 ft | 450 kts | 101° |
| 2026-04-26 20:06 | -19.10866 | 49.09096 | 26786 ft | 452 kts | 101° |
| 2026-04-26 20:07 | -19.11449 | 49.12367 | 27027 ft | 454 kts | 101° |
| 2026-04-26 20:07 | -19.12036 | 49.15663 | 27283 ft | 457 kts | 101° |
| 2026-04-26 20:07 | -19.12624 | 49.18970 | 27544 ft | 459 kts | 101° |
| 2026-04-26 20:07 | -19.13207 | 49.22252 | 27799 ft | 461 kts | 101° |
| 2026-04-26 20:08 | -19.13808 | 49.25646 | 28054 ft | 464 kts | 101° |
| 2026-04-26 20:08 | -19.14396 | 49.28966 | 28307 ft | 467 kts | 101° |
| 2026-04-26 20:08 | -19.14994 | 49.32346 | 28567 ft | 469 kts | 101° |
| 2026-04-26 20:08 | -19.15597 | 49.35752 | 28833 ft | 472 kts | 101° |
| 2026-04-26 20:09 | -19.16201 | 49.39173 | 29086 ft | 475 kts | 101° |
| 2026-04-26 20:09 | -19.16807 | 49.42609 | 29351 ft | 477 kts | 101° |
| 2026-04-26 20:09 | -19.17417 | 49.46076 | 29622 ft | 479 kts | 100° |
| 2026-04-26 20:09 | -19.18030 | 49.49556 | 29879 ft | 482 kts | 100° |
| 2026-04-26 20:10 | -19.18645 | 49.53054 | 30147 ft | 485 kts | 100° |
| 2026-04-26 20:10 | -19.19264 | 49.56569 | 30408 ft | 488 kts | 100° |
| 2026-04-26 20:10 | -19.19885 | 49.60109 | 30696 ft | 491 kts | 100° |
| 2026-04-26 20:10 | -19.20507 | 49.63672 | 30974 ft | 494 kts | 100° |
| 2026-04-26 20:11 | -19.21135 | 49.67264 | 31269 ft | 496 kts | 100° |
| 2026-04-26 20:11 | -19.21765 | 49.70868 | 31547 ft | 499 kts | 100° |
| 2026-04-26 20:11 | -19.22394 | 49.74480 | 31812 ft | 502 kts | 101° |
| 2026-04-26 20:12 | -19.23668 | 49.81788 | 32327 ft | 507 kts | 101° |
| 2026-04-26 20:12 | -19.24299 | 49.85415 | 32588 ft | 510 kts | 101° |
| 2026-04-26 20:12 | -19.24951 | 49.89166 | 32855 ft | 512 kts | 101° |
| 2026-04-26 20:12 | -19.25595 | 49.92877 | 33092 ft | 515 kts | 101° |
| 2026-04-26 20:13 | -19.26243 | 49.96621 | 33335 ft | 518 kts | 101° |
| 2026-04-26 20:13 | -19.26886 | 50.00334 | 33573 ft | 520 kts | 101° |
| 2026-04-26 20:13 | -19.27539 | 50.04112 | 33844 ft | 522 kts | 101° |
| 2026-04-26 20:13 | -19.28194 | 50.07901 | 34107 ft | 524 kts | 101° |
| 2026-04-26 20:14 | -19.28849 | 50.11701 | 34334 ft | 526 kts | 101° |
| 2026-04-26 20:14 | -19.29509 | 50.15521 | 34542 ft | 529 kts | 101° |
| 2026-04-26 20:14 | -19.30167 | 50.19352 | 34861 ft | 529 kts | 101° |
| 2026-04-26 20:14 | -19.30823 | 50.23184 | 35186 ft | 529 kts | 101° |
| 2026-04-26 20:15 | -19.31480 | 50.27026 | 35476 ft | 529 kts | 101° |
| 2026-04-26 20:15 | -19.32135 | 50.30860 | 35788 ft | 530 kts | 100° |
| 2026-04-26 20:15 | -19.32790 | 50.34697 | 36093 ft | 530 kts | 100° |
| 2026-04-26 20:15 | -19.33446 | 50.38540 | 36386 ft | 530 kts | 100° |
| 2026-04-26 20:16 | -19.34101 | 50.42381 | 36669 ft | 531 kts | 100° |
| 2026-04-26 20:16 | -19.34757 | 50.46230 | 36945 ft | 531 kts | 100° |
| 2026-04-26 20:16 | -19.35411 | 50.50079 | 37283 ft | 530 kts | 100° |
| 2026-04-26 20:16 | -19.36061 | 50.53912 | 37658 ft | 529 kts | 100° |
| 2026-04-26 20:17 | -19.36709 | 50.57735 | 38035 ft | 527 kts | 100° |
| 2026-04-26 20:17 | -19.37355 | 50.61550 | 38358 ft | 526 kts | 100° |
| 2026-04-26 20:17 | -19.37990 | 50.65313 | 38632 ft | 526 kts | 100° |
| 2026-04-26 20:17 | -19.38426 | 50.67892 | 38803 ft | 526 kts | 100° |
| 2026-04-26 20:18 | -19.39276 | 50.72934 | 39140 ft | 526 kts | 100° |
| 2026-04-26 20:18 | -19.39922 | 50.76760 | 39359 ft | 527 kts | 100° |
| 2026-04-26 20:18 | -19.40565 | 50.80584 | 39617 ft | 527 kts | 100° |
| 2026-04-26 20:18 | -19.41206 | 50.84403 | 39902 ft | 525 kts | 100° |
| 2026-04-26 20:19 | -19.41846 | 50.88217 | 40168 ft | 525 kts | 100° |
| 2026-04-26 20:19 | -19.42483 | 50.92023 | 40387 ft | 525 kts | 100° |
| 2026-04-26 20:19 | -19.43121 | 50.95835 | 40605 ft | 525 kts | 100° |
| 2026-04-26 20:19 | -19.43755 | 50.99632 | 40840 ft | 524 kts | 100° |
| 2026-04-26 20:20 | -19.44390 | 51.03440 | 40987 ft | 525 kts | 100° |
| 2026-04-26 20:20 | -19.45662 | 51.11076 | 41001 ft | 534 kts | 100° |
| 2026-04-26 20:21 | -19.46954 | 51.18854 | 40997 ft | 536 kts | 100° |
| 2026-04-26 20:21 | -19.48242 | 51.26632 | 40998 ft | 536 kts | 100° |
| 2026-04-26 20:22 | -19.49529 | 51.34421 | 40999 ft | 536 kts | 100° |
| 2026-04-26 20:22 | -19.50809 | 51.42197 | 40992 ft | 535 kts | 100° |
| 2026-04-26 20:23 | -19.52087 | 51.49974 | 40990 ft | 536 kts | 100° |
| 2026-04-26 20:23 | -19.53361 | 51.57750 | 40989 ft | 535 kts | 100° |
| 2026-04-26 20:24 | -19.54630 | 51.65519 | 40989 ft | 535 kts | 100° |
| 2026-04-26 20:24 | -19.55900 | 51.73315 | 40989 ft | 536 kts | 100° |
| 2026-04-26 20:25 | -19.57157 | 51.81050 | 40991 ft | 536 kts | 99° |
| 2026-04-26 20:25 | -19.58409 | 51.88853 | 40980 ft | 536 kts | 99° |
| 2026-04-26 20:26 | -19.59670 | 51.96643 | 40971 ft | 536 kts | 99° |
| 2026-04-26 20:26 | -19.60936 | 52.04463 | 40972 ft | 536 kts | 100° |
| 2026-04-26 20:27 | -19.62192 | 52.12266 | 40961 ft | 536 kts | 99° |
| 2026-04-26 20:27 | -19.63443 | 52.20076 | 40963 ft | 536 kts | 99° |
| 2026-04-26 20:28 | -19.64690 | 52.27882 | 40961 ft | 536 kts | 99° |
| 2026-04-26 20:28 | -19.65924 | 52.35630 | 40961 ft | 536 kts | 99° |
| 2026-04-26 20:29 | -19.67162 | 52.43430 | 40963 ft | 536 kts | 99° |
| 2026-04-26 20:29 | -19.68399 | 52.51238 | 40961 ft | 536 kts | 99° |
| 2026-04-26 20:30 | -19.69632 | 52.59045 | 40961 ft | 536 kts | 99° |
| 2026-04-26 20:30 | -19.70859 | 52.66842 | 40961 ft | 536 kts | 99° |
| 2026-04-26 20:31 | -19.72083 | 52.74638 | 40956 ft | 535 kts | 99° |
| 2026-04-26 20:31 | -19.73303 | 52.82432 | 40952 ft | 535 kts | 99° |
| 2026-04-26 20:32 | -19.74520 | 52.90234 | 40952 ft | 536 kts | 99° |
| 2026-04-26 20:32 | -19.75736 | 52.98042 | 40953 ft | 536 kts | 99° |
| 2026-04-26 20:33 | -19.76948 | 53.05859 | 40952 ft | 536 kts | 99° |
| 2026-04-26 20:33 | -19.78157 | 53.13667 | 40952 ft | 536 kts | 99° |
| 2026-04-26 20:34 | -19.79360 | 53.21470 | 40955 ft | 536 kts | 99° |
| 2026-04-26 20:34 | -19.80560 | 53.29275 | 40953 ft | 536 kts | 99° |
| 2026-04-26 20:35 | -19.81759 | 53.37097 | 40953 ft | 536 kts | 99° |
| 2026-04-26 20:35 | -19.82953 | 53.44903 | 40952 ft | 536 kts | 99° |
| 2026-04-26 20:36 | -19.84146 | 53.52737 | 40952 ft | 537 kts | 99° |
| 2026-04-26 20:36 | -19.85334 | 53.60554 | 40943 ft | 536 kts | 99° |
| 2026-04-26 20:37 | -19.86522 | 53.68393 | 40943 ft | 537 kts | 99° |
| 2026-04-26 20:37 | -19.87706 | 53.76232 | 40943 ft | 537 kts | 99° |
| 2026-04-26 20:38 | -19.88886 | 53.84071 | 40943 ft | 537 kts | 99° |
| 2026-04-26 20:38 | -19.90055 | 53.91858 | 40943 ft | 537 kts | 99° |
| 2026-04-26 20:39 | -19.91229 | 53.99702 | 40943 ft | 537 kts | 99° |
| 2026-04-26 20:39 | -19.92400 | 54.07553 | 40943 ft | 537 kts | 99° |
| 2026-04-26 20:40 | -19.93567 | 54.15404 | 40943 ft | 537 kts | 99° |
| 2026-04-26 20:40 | -19.94730 | 54.23243 | 40943 ft | 537 kts | 99° |
| 2026-04-26 20:41 | -19.95894 | 54.31092 | 40943 ft | 537 kts | 99° |
| 2026-04-26 20:41 | -19.96854 | 54.37621 | 40943 ft | 537 kts | 99° |
| 2026-04-26 20:42 | -19.98005 | 54.45475 | 40944 ft | 538 kts | 99° |
| 2026-04-26 20:42 | -19.99154 | 54.53324 | 40943 ft | 537 kts | 99° |
| 2026-04-26 20:43 | -20.00299 | 54.61173 | 40942 ft | 537 kts | 99° |
| 2026-04-26 20:43 | -20.01439 | 54.69029 | 40944 ft | 538 kts | 99° |
| 2026-04-26 20:44 | -20.02581 | 54.76886 | 40943 ft | 538 kts | 99° |
| 2026-04-26 20:44 | -20.03721 | 54.84762 | 40943 ft | 538 kts | 99° |
| 2026-04-26 20:45 | -20.04856 | 54.92631 | 40943 ft | 538 kts | 99° |
| 2026-04-26 20:45 | -20.05988 | 55.00504 | 40943 ft | 538 kts | 99° |
| 2026-04-26 20:46 | -20.07116 | 55.08382 | 40917 ft | 539 kts | 99° |
| 2026-04-26 20:46 | -20.07677 | 55.12311 | 40679 ft | 536 kts | 99° |
| 2026-04-26 20:46 | -20.08232 | 55.16228 | 40243 ft | 534 kts | 99° |
| 2026-04-26 20:46 | -20.08781 | 55.20086 | 39438 ft | 537 kts | 99° |
| 2026-04-26 20:47 | -20.09341 | 55.24021 | 38709 ft | 538 kts | 99° |
| 2026-04-26 20:47 | -20.09719 | 55.26679 | 38250 ft | 538 kts | 99° |
| 2026-04-26 20:47 | -20.10456 | 55.31882 | 37355 ft | 537 kts | 99° |
| 2026-04-26 20:47 | -20.11012 | 55.35811 | 36665 ft | 536 kts | 100° |
| 2026-04-26 20:48 | -20.11566 | 55.39734 | 35965 ft | 535 kts | 100° |
| 2026-04-26 20:48 | -20.12115 | 55.43636 | 35242 ft | 533 kts | 101° |
| 2026-04-26 20:48 | -20.12663 | 55.47532 | 34608 ft | 530 kts | 101° |
| 2026-04-26 20:48 | -20.13207 | 55.51412 | 34077 ft | 524 kts | 101° |
| 2026-04-26 20:49 | -20.13735 | 55.55225 | 33554 ft | 519 kts | 101° |
| 2026-04-26 20:49 | -20.14234 | 55.59027 | 33015 ft | 515 kts | 101° |
| 2026-04-26 20:49 | -20.14721 | 55.62774 | 32499 ft | 510 kts | 101° |
| 2026-04-26 20:49 | -20.15193 | 55.66395 | 31983 ft | 505 kts | 101° |
| 2026-04-26 20:50 | -20.15674 | 55.70078 | 31467 ft | 500 kts | 101° |
| 2026-04-26 20:50 | -20.16145 | 55.73683 | 30961 ft | 495 kts | 101° |
| 2026-04-26 20:50 | -20.16616 | 55.77290 | 30453 ft | 490 kts | 101° |
| 2026-04-26 20:50 | -20.17083 | 55.80862 | 29947 ft | 485 kts | 101° |
| 2026-04-26 20:51 | -20.17544 | 55.84400 | 29445 ft | 479 kts | 101° |
| 2026-04-26 20:51 | -20.18001 | 55.87907 | 28948 ft | 474 kts | 101° |
| 2026-04-26 20:51 | -20.18449 | 55.91367 | 28447 ft | 470 kts | 101° |
| 2026-04-26 20:51 | -20.18894 | 55.94799 | 27960 ft | 465 kts | 101° |
| 2026-04-26 20:52 | -20.19333 | 55.98184 | 27450 ft | 460 kts | 101° |
| 2026-04-26 20:52 | -20.19762 | 56.01503 | 26976 ft | 455 kts | 101° |
| 2026-04-26 20:52 | -20.20008 | 56.04881 | 26476 ft | 452 kts | 94° |
| 2026-04-26 20:52 | -20.20040 | 56.08201 | 25997 ft | 447 kts | 92° |
| 2026-04-26 20:53 | -20.20040 | 56.11499 | 25505 ft | 442 kts | 92° |
| 2026-04-26 20:53 | -20.20038 | 56.14749 | 25019 ft | 437 kts | 92° |
| 2026-04-26 20:53 | -20.20039 | 56.17968 | 24527 ft | 432 kts | 92° |
| 2026-04-26 20:53 | -20.20042 | 56.21153 | 24039 ft | 427 kts | 92° |
| 2026-04-26 20:54 | -20.20045 | 56.24257 | 23563 ft | 422 kts | 92° |
| 2026-04-26 20:54 | -20.20050 | 56.27370 | 23084 ft | 417 kts | 92° |
| 2026-04-26 20:54 | -20.20054 | 56.30438 | 22601 ft | 413 kts | 92° |
| 2026-04-26 20:54 | -20.20058 | 56.33478 | 22120 ft | 408 kts | 92° |
| 2026-04-26 20:55 | -20.20060 | 56.36483 | 21650 ft | 403 kts | 92° |
| 2026-04-26 20:55 | -20.20063 | 56.39448 | 21168 ft | 398 kts | 92° |
| 2026-04-26 20:55 | -20.20065 | 56.42374 | 20703 ft | 394 kts | 92° |
| 2026-04-26 20:55 | -20.20067 | 56.45278 | 20244 ft | 389 kts | 92° |
| 2026-04-26 20:56 | -20.20068 | 56.48137 | 19779 ft | 384 kts | 92° |
| 2026-04-26 20:56 | -20.20068 | 56.50966 | 19312 ft | 380 kts | 92° |
| 2026-04-26 20:56 | -20.20067 | 56.53760 | 18869 ft | 375 kts | 91° |
| 2026-04-26 20:56 | -20.20066 | 56.56522 | 18415 ft | 371 kts | 91° |
| 2026-04-26 20:57 | -20.20066 | 56.59256 | 17966 ft | 367 kts | 91° |
| 2026-04-26 20:57 | -20.20065 | 56.61960 | 17522 ft | 363 kts | 91° |
| 2026-04-26 20:57 | -20.20064 | 56.64624 | 17078 ft | 358 kts | 91° |
| 2026-04-26 20:57 | -20.20062 | 56.67258 | 16638 ft | 354 kts | 91° |
| 2026-04-26 20:58 | -20.20060 | 56.69837 | 16203 ft | 350 kts | 91° |
| 2026-04-26 20:58 | -20.20057 | 56.72412 | 15776 ft | 345 kts | 91° |
| 2026-04-26 20:58 | -20.20055 | 56.74953 | 15355 ft | 341 kts | 91° |
| 2026-04-26 20:58 | -20.20052 | 56.77467 | 14940 ft | 338 kts | 91° |
| 2026-04-26 20:59 | -20.20048 | 56.79956 | 14512 ft | 335 kts | 91° |
| 2026-04-26 20:59 | -20.20044 | 56.82425 | 14076 ft | 332 kts | 91° |
| 2026-04-26 20:59 | -20.20040 | 56.84870 | 13664 ft | 329 kts | 91° |
| 2026-04-26 20:59 | -20.20035 | 56.87295 | 13245 ft | 325 kts | 90° |
| 2026-04-26 21:00 | -20.20030 | 56.89694 | 12816 ft | 323 kts | 90° |
| 2026-04-26 21:00 | -20.20025 | 56.92075 | 12389 ft | 320 kts | 90° |
| 2026-04-26 21:00 | -20.20020 | 56.94432 | 11960 ft | 317 kts | 90° |
| 2026-04-26 21:00 | -20.20015 | 56.96772 | 11539 ft | 314 kts | 90° |
| 2026-04-26 21:01 | -20.20009 | 56.99095 | 11113 ft | 312 kts | 90° |
| 2026-04-26 21:01 | -20.20002 | 57.01351 | 10852 ft | 303 kts | 90° |
| 2026-04-26 21:01 | -20.19997 | 57.03541 | 10708 ft | 290 kts | 90° |
| 2026-04-26 21:01 | -20.19991 | 57.05634 | 10567 ft | 277 kts | 90° |
| 2026-04-26 21:02 | -20.19985 | 57.07652 | 10391 ft | 270 kts | 89° |
| 2026-04-26 21:02 | -20.19978 | 57.09643 | 10094 ft | 268 kts | 89° |
| 2026-04-26 21:02 | -20.19969 | 57.11630 | 9785 ft | 272 kts | 89° |
| 2026-04-26 21:02 | -20.19960 | 57.13703 | 9664 ft | 285 kts | 89° |
| 2026-04-26 21:03 | -20.19952 | 57.15797 | 9381 ft | 282 kts | 89° |
| 2026-04-26 21:03 | -20.19945 | 57.17895 | 8829 ft | 284 kts | 89° |
| 2026-04-26 21:03 | -20.19939 | 57.19986 | 8430 ft | 281 kts | 89° |
| 2026-04-26 21:03 | -20.19931 | 57.22057 | 8081 ft | 278 kts | 89° |
| 2026-04-26 21:04 | -20.19924 | 57.24111 | 7745 ft | 276 kts | 89° |
| 2026-04-26 21:04 | -20.19928 | 57.26147 | 7408 ft | 274 kts | 90° |
| 2026-04-26 21:04 | -20.20287 | 57.28132 | 7084 ft | 275 kts | 110° |
| 2026-04-26 21:04 | -20.21426 | 57.29762 | 6754 ft | 278 kts | 134° |
| 2026-04-26 21:05 | -20.22861 | 57.31136 | 6412 ft | 277 kts | 136° |
| 2026-04-26 21:05 | -20.24292 | 57.32496 | 6074 ft | 275 kts | 134° |
| 2026-04-26 21:05 | -20.25638 | 57.33924 | 5912 ft | 272 kts | 130° |
| 2026-04-26 21:05 | -20.26871 | 57.35443 | 5899 ft | 267 kts | 125° |
| 2026-04-26 21:06 | -20.27903 | 57.37003 | 5891 ft | 248 kts | 119° |
| 2026-04-26 21:06 | -20.28717 | 57.38518 | 5873 ft | 231 kts | 114° |
| 2026-04-26 21:06 | -20.29410 | 57.40001 | 5837 ft | 215 kts | 113° |
| 2026-04-26 21:06 | -20.30053 | 57.41368 | 5823 ft | 201 kts | 114° |
| 2026-04-26 21:07 | -20.30691 | 57.42680 | 5811 ft | 198 kts | 115° |
| 2026-04-26 21:07 | -20.31319 | 57.43988 | 5739 ft | 198 kts | 114° |
| 2026-04-26 21:07 | -20.31943 | 57.45289 | 5522 ft | 197 kts | 115° |
| 2026-04-26 21:07 | -20.32569 | 57.46590 | 5211 ft | 198 kts | 114° |
| 2026-04-26 21:08 | -20.33196 | 57.47895 | 4878 ft | 198 kts | 114° |
| 2026-04-26 21:08 | -20.33824 | 57.49204 | 4516 ft | 199 kts | 114° |
| 2026-04-26 21:08 | -20.34451 | 57.50510 | 4196 ft | 195 kts | 114° |
| 2026-04-26 21:08 | -20.35064 | 57.51782 | 3879 ft | 191 kts | 114° |
| 2026-04-26 21:09 | -20.35661 | 57.53027 | 3570 ft | 187 kts | 114° |
| 2026-04-26 21:09 | -20.36246 | 57.54250 | 3286 ft | 184 kts | 116° |
| 2026-04-26 21:09 | -20.36828 | 57.55464 | 3004 ft | 184 kts | 117° |
| 2026-04-26 21:09 | -20.37405 | 57.56660 | 2721 ft | 176 kts | 117° |
| 2026-04-26 21:10 | -20.37936 | 57.57762 | 2453 ft | 159 kts | 115° |
| 2026-04-26 21:10 | -20.38420 | 57.58762 | 2203 ft | 146 kts | 116° |
| 2026-04-26 21:10 | -20.38878 | 57.59685 | 2006 ft | 136 kts | 115° |
| 2026-04-26 21:10 | -20.39288 | 57.60572 | 1771 ft | 131 kts | 114° |
| 2026-04-26 21:11 | -20.39684 | 57.61428 | 1566 ft | 129 kts | 115° |
| 2026-04-26 21:11 | -20.40093 | 57.62277 | 1379 ft | 129 kts | 115° |
| 2026-04-26 21:11 | -20.40521 | 57.63126 | 1160 ft | 130 kts | 114° |
| 2026-04-26 21:11 | -20.40937 | 57.63986 | 964 ft | 131 kts | 113° |
| 2026-04-26 21:12 | -20.41340 | 57.64858 | 780 ft | 131 kts | 113° |
| 2026-04-26 21:12 | -20.41755 | 57.65728 | 576 ft | 131 kts | 115° |
| 2026-04-26 21:12 | -20.42176 | 57.66589 | 377 ft | 131 kts | 113° |
| 2026-04-26 21:12 | -20.42589 | 57.67449 | 209 ft | 129 kts | 114° |
| 2026-04-26 21:13 | -20.42953 | 57.68209 | 186 ft | 99 kts | 117° |
| 2026-04-26 21:13 | -20.43229 | 57.68779 | 176 ft | 79 kts | 117° |
| 2026-04-26 21:13 | -20.43451 | 57.69240 | 148 ft | 49 kts | 117° |
| 2026-04-26 21:13 | -20.43563 | 57.69363 | 141 ft | 13 kts | 195° |
| 2026-04-26 21:14 | -20.43634 | 57.69327 | 149 ft | 8 kts | 210° |
| 2026-04-26 21:14 | -20.43648 | 57.69301 | 154 ft | 6 kts | 257° |